createdAt,value
2022-11-20T00:00:22.775Z,14.90
2022-11-20T00:02:49.641Z,15.23
2022-11-20T00:05:16.902Z,15.13
2022-11-20T00:07:43.851Z,15.07
2022-11-20T00:10:10.819Z,14.53
2022-11-20T00:12:37.715Z,13.60
2022-11-20T00:15:07.424Z,15.43
2022-11-20T00:17:34.273Z,13.90
2022-11-20T00:20:01.856Z,13.33
2022-11-20T00:22:28.770Z,13.33
2022-11-20T00:24:55.964Z,13.47
2022-11-20T00:27:22.804Z,13.33
2022-11-20T00:29:50.057Z,13.63
2022-11-20T00:32:18.583Z,12.77
2022-11-20T00:34:45.796Z,13.63
2022-11-20T00:37:12.647Z,13.30
2022-11-20T00:39:40.119Z,12.90
2022-11-20T00:42:06.994Z,12.43
2022-11-20T00:44:34.268Z,13.17
2022-11-20T00:47:01.150Z,13.83
2022-11-20T00:49:29.770Z,12.90
2022-11-20T00:51:56.644Z,12.37
2022-11-20T00:54:23.602Z,11.60
2022-11-20T00:56:50.453Z,12.50
2022-11-20T00:59:17.390Z,12.30
2022-11-20T01:01:44.406Z,13.43
2022-11-20T01:04:11.604Z,13.10
2022-11-20T01:06:40.588Z,12.97
2022-11-20T01:09:10.760Z,12.80
2022-11-20T01:11:39.978Z,12.53
2022-11-20T01:14:08.793Z,12.33
2022-11-20T01:16:37.635Z,13.63
2022-11-20T01:19:07.615Z,11.77
2022-11-20T01:21:36.815Z,12.50
2022-11-20T01:24:08.944Z,12.73
2022-11-20T01:26:37.363Z,12.80
2022-11-20T01:29:05.959Z,13.33
2022-11-20T01:31:35.343Z,13.03
2022-11-20T01:34:05.019Z,12.87
2022-11-20T01:36:33.696Z,12.77
2022-11-20T01:39:05.272Z,13.27
2022-11-20T01:41:53.966Z,12.60
2022-11-20T01:44:23.617Z,13.47
2022-11-20T01:46:56.748Z,13.50
2022-11-20T01:49:28.428Z,13.70
2022-11-20T01:51:59.731Z,13.40
2022-11-20T01:54:37.328Z,13.50
2022-11-20T01:57:07.115Z,14.57
2022-11-20T01:59:36.895Z,14.63
2022-11-20T02:02:03.878Z,13.73
2022-11-20T02:04:31.004Z,13.17
2022-11-20T02:07:01.039Z,14.80
2022-11-20T02:09:30.007Z,14.37
2022-11-20T02:11:58.595Z,14.47
2022-11-20T02:14:26.635Z,14.80
2022-11-20T02:16:55.098Z,14.47
2022-11-20T02:19:26.334Z,13.93
2022-11-20T02:22:00.716Z,13.87
2022-11-20T02:24:29.425Z,13.17
2022-11-20T02:27:00.801Z,13.53
2022-11-20T02:29:31.895Z,12.17
2022-11-20T02:32:01.847Z,12.83
2022-11-20T02:34:30.166Z,12.67
2022-11-20T02:36:58.488Z,13.40
2022-11-20T02:39:28.916Z,13.37
2022-11-20T02:41:57.010Z,12.97
2022-11-20T02:44:25.513Z,13.57
2022-11-20T02:46:52.471Z,14.27
2022-11-20T02:49:20.138Z,13.27
2022-11-20T02:51:47.222Z,13.57
2022-11-20T02:54:14.559Z,13.23
2022-11-20T02:56:42.767Z,13.40
2022-11-20T02:59:09.739Z,12.37
2022-11-20T03:01:36.818Z,13.30
2022-11-20T03:04:04.737Z,13.00
2022-11-20T03:06:31.716Z,13.63
2022-11-20T03:08:58.852Z,13.67
2022-11-20T03:11:25.871Z,12.83
2022-11-20T03:13:54.402Z,13.10
2022-11-20T03:16:22.973Z,12.93
2022-11-20T03:18:52.846Z,13.37
2022-11-20T03:21:19.707Z,13.63
2022-11-20T03:23:46.945Z,13.97
2022-11-20T03:26:18.061Z,13.80
2022-11-20T03:28:49.125Z,13.63
2022-11-20T03:31:18.840Z,13.57
2022-11-20T03:33:46.230Z,13.73
2022-11-20T03:36:15.080Z,13.50
2022-11-20T03:38:43.002Z,13.40
2022-11-20T03:41:12.158Z,14.13
2022-11-20T03:43:39.965Z,13.83
2022-11-20T03:46:07.987Z,12.87
2022-11-20T03:48:36.675Z,15.17
2022-11-20T03:51:11.241Z,14.20
2022-11-20T03:53:38.496Z,13.20
2022-11-20T03:56:06.525Z,13.50
2022-11-20T03:58:34.258Z,13.83
2022-11-20T04:01:07.355Z,13.70
2022-11-20T04:03:36.335Z,13.30
2022-11-20T04:06:05.100Z,13.27
2022-11-20T04:08:32.911Z,13.53
2022-11-20T04:11:10.182Z,14.27
2022-11-20T04:13:37.637Z,13.60
2022-11-20T04:16:05.023Z,13.47
2022-11-20T04:18:32.250Z,13.10
2022-11-20T04:21:00.793Z,13.83
2022-11-20T04:23:29.078Z,12.77
2022-11-20T04:25:56.178Z,14.17
2022-11-20T04:28:23.502Z,13.60
2022-11-20T04:30:50.356Z,14.13
2022-11-20T04:33:17.567Z,12.63
2022-11-20T04:35:47.539Z,13.73
2022-11-20T04:38:16.244Z,14.30
2022-11-20T04:40:43.107Z,13.90
2022-11-20T04:43:10.010Z,13.23
2022-11-20T04:45:36.961Z,13.27
2022-11-20T04:48:04.631Z,13.40
2022-11-20T04:50:31.496Z,13.93
2022-11-20T04:52:58.664Z,13.77
2022-11-20T04:55:26.949Z,13.90
2022-11-20T04:57:54.127Z,14.27
2022-11-20T05:00:21.215Z,13.53
2022-11-20T05:02:48.828Z,12.83
2022-11-20T05:05:15.811Z,13.97
2022-11-20T05:07:43.066Z,13.87
2022-11-20T05:10:10.199Z,14.30
2022-11-20T05:12:38.870Z,14.40
2022-11-20T05:15:06.847Z,12.80
2022-11-20T05:17:34.223Z,12.93
2022-11-20T05:20:01.575Z,13.87
2022-11-20T05:22:28.771Z,13.23
2022-11-20T05:24:55.677Z,14.37
2022-11-20T05:27:22.545Z,14.23
2022-11-20T05:29:50.755Z,12.93
2022-11-20T05:32:17.987Z,13.07
2022-11-20T05:34:44.903Z,13.63
2022-11-20T05:37:11.811Z,13.40
2022-11-20T05:39:39.019Z,13.30
2022-11-20T05:42:24.911Z,13.50
2022-11-20T05:44:53.150Z,13.00
2022-11-20T05:47:20.097Z,14.43
2022-11-20T05:49:47.003Z,13.07
2022-11-20T05:52:14.494Z,13.93
2022-11-20T05:54:41.459Z,12.83
2022-11-20T05:57:08.680Z,13.23
2022-11-20T05:59:35.563Z,12.77
2022-11-20T06:02:03.878Z,12.77
2022-11-20T06:04:30.799Z,13.67
2022-11-20T06:06:57.716Z,13.23
2022-11-20T06:09:25.143Z,12.97
2022-11-20T06:11:52.035Z,13.37
2022-11-20T06:14:19.412Z,12.40
2022-11-20T06:16:46.282Z,13.57
2022-11-20T06:19:15.008Z,13.23
2022-11-20T06:21:42.517Z,13.23
2022-11-20T06:24:11.307Z,12.67
2022-11-20T06:26:38.692Z,13.30
2022-11-20T06:29:05.535Z,12.20
2022-11-20T06:31:36.167Z,12.70
2022-11-20T06:34:03.095Z,12.60
2022-11-20T06:36:32.182Z,13.10
2022-11-20T06:38:59.147Z,13.20
2022-11-20T06:41:26.508Z,12.97
2022-11-20T06:43:53.947Z,12.47
2022-11-20T06:46:21.750Z,13.27
2022-11-20T06:48:49.889Z,14.00
2022-11-20T06:51:17.400Z,12.80
2022-11-20T06:53:46.546Z,14.20
2022-11-20T06:56:13.563Z,12.37
2022-11-20T06:58:40.532Z,12.77
2022-11-20T07:01:10.600Z,12.80
2022-11-20T07:03:38.167Z,12.47
2022-11-20T07:06:06.079Z,13.33
2022-11-20T07:08:34.224Z,13.23
2022-11-20T07:11:04.684Z,12.50
2022-11-20T07:13:34.918Z,12.70
2022-11-20T07:16:02.987Z,13.37
2022-11-20T07:18:30.359Z,13.20
2022-11-20T07:21:00.938Z,12.70
2022-11-20T07:23:27.850Z,12.47
2022-11-20T07:25:55.170Z,12.73
2022-11-20T07:28:24.544Z,12.70
2022-11-20T07:30:52.127Z,13.17
2022-11-20T07:33:19.474Z,11.40
2022-11-20T07:35:47.054Z,13.37
2022-11-20T07:38:14.131Z,13.23
2022-11-20T07:40:41.502Z,12.47
2022-11-20T07:43:08.558Z,13.27
2022-11-20T07:45:36.866Z,12.53
2022-11-20T07:48:04.465Z,13.67
2022-11-20T07:50:31.535Z,13.27
2022-11-20T07:53:04.061Z,13.00
2022-11-20T07:55:31.235Z,12.53
2022-11-20T07:57:58.787Z,12.93
2022-11-20T08:00:26.947Z,12.93
2022-11-20T08:02:55.728Z,12.83
2022-11-20T08:05:22.623Z,12.57
2022-11-20T08:07:50.292Z,13.13
2022-11-20T08:10:17.911Z,13.33
2022-11-20T08:13:04.626Z,12.47
2022-11-20T08:15:31.940Z,13.40
2022-11-20T08:18:30.123Z,12.93
2022-11-20T08:20:53.102Z,12.53
2022-11-20T08:23:20.142Z,13.53
2022-11-20T08:25:51.201Z,12.13
2022-11-20T08:28:21.232Z,13.33
2022-11-20T08:30:48.849Z,12.30
2022-11-20T08:33:18.341Z,12.43
2022-11-20T08:35:46.152Z,12.23
2022-11-20T08:38:13.164Z,12.80
2022-11-20T08:40:40.156Z,12.93
2022-11-20T08:43:07.378Z,12.13
2022-11-20T08:45:35.419Z,11.67
2022-11-20T08:48:04.412Z,12.53
2022-11-20T08:50:33.972Z,10.63
2022-11-20T08:53:04.476Z,12.40
2022-11-20T08:55:31.513Z,12.20
2022-11-20T08:57:58.786Z,12.80
2022-11-20T09:00:25.788Z,12.67
2022-11-20T09:02:53.345Z,12.80
2022-11-20T09:05:20.262Z,10.27
2022-11-20T09:07:48.554Z,12.30
2022-11-20T09:10:24.415Z,11.03
2022-11-20T09:12:53.067Z,11.43
2022-11-20T09:15:20.580Z,13.20
2022-11-20T09:17:52.967Z,13.40
2022-11-20T09:20:20.509Z,11.63
2022-11-20T09:22:48.820Z,12.27
2022-11-20T09:25:16.760Z,11.90
2022-11-20T09:27:45.527Z,12.40
2022-11-20T09:30:13.964Z,11.43
2022-11-20T09:32:41.955Z,12.43
2022-11-20T09:35:09.837Z,11.50
2022-11-20T09:37:37.348Z,12.10
2022-11-20T09:40:07.169Z,11.00
2022-11-20T09:42:42.277Z,12.00
2022-11-20T09:45:26.018Z,12.03
2022-11-20T09:48:27.279Z,11.50
2022-11-20T09:51:00.784Z,11.17
2022-11-20T09:53:36.380Z,11.80
2022-11-20T09:56:06.658Z,10.53
2022-11-20T09:58:39.524Z,10.77
2022-11-20T10:01:12.787Z,10.57
2022-11-20T10:03:48.962Z,11.30
2022-11-20T10:06:22.436Z,10.53
2022-11-20T10:08:59.691Z,11.53
2022-11-20T10:11:39.205Z,10.60
2022-11-20T10:14:16.706Z,10.00
2022-11-20T10:16:50.822Z,10.20
2022-11-20T10:19:43.899Z,10.57
2022-11-20T10:22:24.735Z,9.00
2022-11-20T10:24:58.498Z,10.87
2022-11-20T10:27:50.054Z,11.27
2022-11-20T10:30:19.611Z,11.70
2022-11-20T10:32:48.691Z,11.27
2022-11-20T10:35:22.899Z,11.70
2022-11-20T10:37:56.832Z,11.53
2022-11-20T10:40:32.943Z,11.67
2022-11-20T10:43:04.502Z,11.83
2022-11-20T10:45:46.567Z,12.20
2022-11-20T10:48:23.069Z,11.97
2022-11-20T10:51:12.482Z,12.47
2022-11-20T10:53:48.203Z,11.33
2022-11-20T10:56:21.489Z,11.70
2022-11-20T10:59:01.358Z,10.40
2022-11-20T11:01:29.025Z,11.20
2022-11-20T11:03:56.917Z,11.60
2022-11-20T11:06:31.254Z,12.50
2022-11-20T11:09:02.231Z,11.80
2022-11-20T11:11:31.493Z,10.67
2022-11-20T11:14:07.552Z,12.27
2022-11-20T11:16:34.807Z,12.20
2022-11-20T11:19:06.181Z,10.87
2022-11-20T11:21:33.611Z,11.70
2022-11-20T11:24:19.923Z,12.00
2022-11-20T11:26:57.626Z,12.03
2022-11-20T11:29:30.210Z,10.53
2022-11-20T11:32:06.634Z,10.80
2022-11-20T11:34:33.534Z,11.03
2022-11-20T11:37:03.120Z,12.37
2022-11-20T11:39:31.953Z,10.73
2022-11-20T11:42:01.736Z,12.23
2022-11-20T11:45:08.404Z,9.80
2022-11-20T11:47:44.273Z,10.70
2022-11-20T11:50:17.569Z,10.87
2022-11-20T11:52:49.616Z,10.40
2022-11-20T11:55:26.129Z,11.57
2022-11-20T11:57:58.677Z,10.93
2022-11-20T12:00:27.936Z,11.17
2022-11-20T12:03:01.467Z,11.50
2022-11-20T12:05:31.926Z,10.27
2022-11-20T12:08:05.080Z,10.50
2022-11-20T12:10:45.561Z,11.97
2022-11-20T12:13:22.835Z,11.20
2022-11-20T12:15:51.412Z,10.17
2022-11-20T12:18:21.077Z,11.33
2022-11-20T12:20:58.817Z,9.70
2022-11-20T12:23:35.577Z,9.60
2022-11-20T12:26:11.671Z,9.10
2022-11-20T12:28:58.584Z,9.53
2022-11-20T12:31:40.650Z,9.63
2022-11-20T12:34:22.132Z,9.10
2022-11-20T12:36:57.921Z,9.00
2022-11-20T12:39:35.625Z,8.47
2022-11-20T12:42:44.755Z,8.87
2022-11-20T12:45:50.773Z,9.43
2022-11-20T12:48:43.528Z,8.93
2022-11-20T12:51:29.548Z,9.87
2022-11-20T12:54:12.003Z,9.97
2022-11-20T12:56:47.812Z,9.57
2022-11-20T12:59:29.011Z,8.63
2022-11-20T13:02:02.537Z,10.63
2022-11-20T13:04:47.867Z,10.23
2022-11-20T13:07:17.265Z,9.70
2022-11-20T13:09:48.518Z,9.37
2022-11-20T13:12:21.223Z,8.17
2022-11-20T13:14:55.074Z,9.43
2022-11-20T13:17:29.907Z,9.57
2022-11-20T13:20:02.202Z,9.17
2022-11-20T13:22:31.224Z,10.17
2022-11-20T13:24:58.184Z,9.30
2022-11-20T13:27:25.801Z,10.10
2022-11-20T13:30:15.178Z,11.07
2022-11-20T13:32:53.246Z,10.43
2022-11-20T13:35:33.139Z,10.63
2022-11-20T13:38:06.876Z,10.00
2022-11-20T13:40:34.802Z,10.10
2022-11-20T13:43:22.771Z,11.27
2022-11-20T13:45:58.053Z,11.13
2022-11-20T13:48:29.648Z,11.47
2022-11-20T13:51:20.351Z,10.27
2022-11-20T13:54:15.355Z,10.43
2022-11-20T13:56:55.410Z,10.10
2022-11-20T13:59:45.710Z,10.70
2022-11-20T14:02:15.463Z,11.67
2022-11-20T14:04:45.861Z,11.03
2022-11-20T14:07:15.174Z,10.50
2022-11-20T14:09:51.601Z,10.57
2022-11-20T14:12:21.525Z,10.20
2022-11-20T14:14:50.774Z,10.93
2022-11-20T14:17:22.208Z,10.60
2022-11-20T14:19:51.258Z,10.60
2022-11-20T14:22:23.182Z,11.03
2022-11-20T14:25:01.730Z,10.90
2022-11-20T14:27:29.235Z,10.90
2022-11-20T14:29:56.334Z,11.10
2022-11-20T14:32:29.447Z,11.27
2022-11-20T14:35:02.282Z,11.07
2022-11-20T14:37:37.384Z,10.47
2022-11-20T14:40:22.528Z,11.50
2022-11-20T14:42:50.293Z,11.67
2022-11-20T14:45:18.249Z,12.07
2022-11-20T14:47:45.999Z,11.17
2022-11-20T14:50:16.502Z,12.40
2022-11-20T14:52:53.526Z,11.17
2022-11-20T14:55:28.437Z,11.47
2022-11-20T14:58:01.038Z,11.87
2022-11-20T15:00:28.824Z,12.47
2022-11-20T15:02:56.129Z,12.67
2022-11-20T15:05:25.184Z,12.43
2022-11-20T15:08:06.523Z,12.40
2022-11-20T15:10:33.729Z,12.77
2022-11-20T15:13:06.018Z,12.20
2022-11-20T15:15:43.907Z,12.57
2022-11-20T15:18:13.420Z,12.43
2022-11-20T15:20:43.439Z,13.73
2022-11-20T15:23:14.671Z,13.87
2022-11-20T15:25:42.915Z,13.43
2022-11-20T15:28:18.038Z,13.83
2022-11-20T15:30:47.152Z,14.80
2022-11-20T15:33:15.030Z,13.73
2022-11-20T15:35:42.163Z,13.77
2022-11-20T15:38:09.333Z,13.93
2022-11-20T15:40:37.626Z,15.27
2022-11-20T15:43:09.742Z,14.53
2022-11-20T15:45:42.044Z,13.70
2022-11-20T15:48:12.316Z,13.77
2022-11-20T15:50:44.609Z,14.17
2022-11-20T15:53:11.579Z,13.80
2022-11-20T15:55:40.066Z,14.70
2022-11-20T15:58:06.923Z,13.77
2022-11-20T16:00:33.836Z,13.13
2022-11-20T16:03:00.836Z,15.63
2022-11-20T16:05:29.703Z,15.03
2022-11-20T16:07:56.734Z,14.20
2022-11-20T16:10:24.428Z,14.70
2022-11-20T16:13:11.082Z,14.37
2022-11-20T16:15:47.346Z,15.03
2022-11-20T16:18:16.977Z,15.60
2022-11-20T16:20:44.515Z,14.73
2022-11-20T16:23:12.026Z,15.00
2022-11-20T16:25:39.033Z,15.77
2022-11-20T16:28:07.370Z,14.20
2022-11-20T16:30:34.874Z,15.00
2022-11-20T16:33:01.945Z,15.90
2022-11-20T16:35:29.760Z,15.37
2022-11-20T16:37:57.944Z,15.97
2022-11-20T16:40:25.794Z,15.07
2022-11-20T16:42:52.749Z,16.63
2022-11-20T16:45:26.094Z,15.67
2022-11-20T16:47:54.882Z,16.57
2022-11-20T16:50:21.718Z,16.80
2022-11-20T16:52:48.603Z,16.63
2022-11-20T16:55:15.773Z,17.40
2022-11-20T16:57:42.662Z,17.80
2022-11-20T17:00:10.527Z,17.77
2022-11-20T17:02:38.899Z,17.23
2022-11-20T17:05:06.732Z,16.40
2022-11-20T17:07:33.748Z,17.17
2022-11-20T17:10:01.099Z,16.40
2022-11-20T17:12:28.093Z,16.40
2022-11-20T17:14:54.951Z,17.23
2022-11-20T17:17:24.083Z,17.60
2022-11-20T17:19:52.612Z,17.87
2022-11-20T17:22:19.560Z,17.87
2022-11-20T17:24:46.659Z,21.40
2022-11-20T17:27:13.658Z,16.87
2022-11-20T17:29:42.186Z,16.90
2022-11-20T17:32:09.306Z,16.40
2022-11-20T17:34:36.261Z,16.87
2022-11-20T17:37:04.571Z,16.83
2022-11-20T17:39:31.437Z,19.53
2022-11-20T17:42:17.061Z,17.80
2022-11-20T17:44:44.050Z,16.67
2022-11-20T17:47:11.363Z,17.27
2022-11-20T17:49:38.272Z,16.53
2022-11-20T17:52:06.739Z,16.20
2022-11-20T17:54:33.731Z,17.43
2022-11-20T17:57:19.079Z,17.80
2022-11-20T17:59:45.956Z,19.20
2022-11-20T18:02:12.830Z,17.73
2022-11-20T18:04:39.757Z,17.73
2022-11-20T18:07:08.130Z,19.00
2022-11-20T18:09:35.133Z,20.13
2022-11-20T18:12:02.087Z,18.87
2022-11-20T18:14:32.636Z,19.43
2022-11-20T18:17:02.618Z,19.90
2022-11-20T18:19:33.040Z,19.43
2022-11-20T18:22:01.617Z,22.23
2022-11-20T18:24:30.534Z,21.47
2022-11-20T18:26:58.195Z,20.20
2022-11-20T18:29:26.890Z,19.93
2022-11-20T18:31:54.343Z,29.57
2022-11-20T18:34:22.021Z,36.03
2022-11-20T18:36:49.506Z,31.60
2022-11-20T18:39:17.036Z,21.23
2022-11-20T18:42:04.206Z,28.33
2022-11-20T18:44:51.172Z,24.37
2022-11-20T18:47:20.037Z,21.27
2022-11-20T18:49:53.045Z,20.20
2022-11-20T18:52:21.952Z,23.00
2022-11-20T18:54:50.213Z,21.80
2022-11-20T18:57:19.818Z,21.60
2022-11-20T18:59:47.333Z,21.80
2022-11-20T19:02:16.835Z,21.03
2022-11-20T19:04:44.286Z,22.27
2022-11-20T19:07:12.213Z,26.83
2022-11-20T19:09:41.402Z,30.23
2022-11-20T19:12:09.994Z,29.37
2022-11-20T19:14:39.485Z,30.80
2022-11-20T19:17:08.008Z,29.43
2022-11-20T19:19:35.415Z,39.43
2022-11-20T19:22:02.394Z,36.43
2022-11-20T19:24:29.636Z,28.30
2022-11-20T19:26:56.701Z,27.70
2022-11-20T19:29:24.842Z,27.80
2022-11-20T19:31:53.427Z,24.90
2022-11-20T19:34:20.414Z,25.17
2022-11-20T19:36:47.440Z,25.70
2022-11-20T19:39:14.354Z,22.70
2022-11-20T19:41:41.795Z,21.10
2022-11-20T19:44:11.028Z,21.87
2022-11-20T19:46:39.284Z,20.73
2022-11-20T19:49:10.432Z,20.80
2022-11-20T19:51:39.171Z,19.87
2022-11-20T19:54:06.812Z,19.00
2022-11-20T19:56:34.467Z,19.37
2022-11-20T19:59:02.136Z,18.87
2022-11-20T20:01:31.188Z,18.97
2022-11-20T20:04:05.315Z,18.50
2022-11-20T20:06:35.615Z,19.50
2022-11-20T20:09:16.663Z,21.20
2022-11-20T20:11:47.197Z,23.27
2022-11-20T20:14:15.669Z,23.70
2022-11-20T20:16:42.946Z,45.27
2022-11-20T20:19:13.377Z,55.33
2022-11-20T20:21:41.738Z,55.43
2022-11-20T20:24:10.866Z,55.03
2022-11-20T20:26:37.955Z,41.10
2022-11-20T20:29:05.037Z,28.13
2022-11-20T20:31:33.463Z,21.93
2022-11-20T20:34:01.040Z,21.43
2022-11-20T20:36:27.976Z,19.27
2022-11-20T20:38:59.854Z,21.00
2022-11-20T20:41:26.895Z,38.00
2022-11-20T20:44:12.955Z,25.47
2022-11-20T20:46:40.892Z,19.03
2022-11-20T20:49:08.445Z,18.10
2022-11-20T20:51:35.677Z,18.90
2022-11-20T20:54:04.411Z,18.00
2022-11-20T20:56:31.324Z,17.77
2022-11-20T20:58:58.713Z,18.43
2022-11-20T21:01:28.613Z,18.23
2022-11-20T21:03:56.063Z,16.73
2022-11-20T21:06:23.343Z,17.00
2022-11-20T21:08:50.963Z,15.73
2022-11-20T21:11:20.411Z,17.07
2022-11-20T21:13:48.430Z,16.77
2022-11-20T21:16:17.291Z,16.67
2022-11-20T21:18:44.699Z,16.40
2022-11-20T21:21:32.396Z,17.07
2022-11-20T21:23:59.734Z,15.87
2022-11-20T21:26:28.094Z,16.87
2022-11-20T21:28:57.091Z,17.23
2022-11-20T21:31:26.487Z,17.37
2022-11-20T21:33:55.223Z,16.77
2022-11-20T21:36:23.789Z,18.40
2022-11-20T21:38:52.295Z,20.17
2022-11-20T21:41:19.713Z,17.87
2022-11-20T21:44:09.121Z,18.20
2022-11-20T21:46:39.207Z,18.03
2022-11-20T21:49:06.957Z,19.00
2022-11-20T21:51:33.915Z,19.63
2022-11-20T21:54:00.868Z,18.40
2022-11-20T21:56:28.537Z,19.57
2022-11-20T21:58:58.396Z,20.00
2022-11-20T22:01:26.923Z,18.97
2022-11-20T22:03:57.444Z,19.17
2022-11-20T22:06:25.549Z,20.33
2022-11-20T22:08:52.992Z,21.37
2022-11-20T22:11:21.389Z,20.37
2022-11-20T22:14:07.672Z,19.77
2022-11-20T22:16:37.091Z,20.90
2022-11-20T22:19:05.489Z,18.93
2022-11-20T22:21:33.220Z,17.90
2022-11-20T22:24:00.744Z,17.10
2022-11-20T22:26:29.160Z,18.23
2022-11-20T22:28:58.678Z,18.30
2022-11-20T22:31:27.084Z,17.77
2022-11-20T22:33:56.208Z,17.07
2022-11-20T22:36:24.492Z,18.33
2022-11-20T22:38:52.265Z,18.43
2022-11-20T22:41:21.191Z,18.17
2022-11-20T22:43:48.448Z,18.27
2022-11-20T22:46:17.116Z,18.10
2022-11-20T22:48:48.651Z,17.13
2022-11-20T22:51:18.511Z,17.60
2022-11-20T22:53:46.134Z,17.70
2022-11-20T22:56:14.640Z,17.03
2022-11-20T22:58:44.108Z,18.40
2022-11-20T23:01:13.103Z,17.67
2022-11-20T23:03:41.942Z,16.83
2022-11-20T23:06:09.598Z,25.20
2022-11-20T23:08:39.360Z,29.97
2022-11-20T23:11:09.043Z,20.50
2022-11-20T23:13:37.128Z,16.83
2022-11-20T23:16:06.756Z,17.20
2022-11-20T23:18:35.143Z,16.90
2022-11-20T23:21:05.097Z,18.13
2022-11-20T23:23:32.328Z,17.03
2022-11-20T23:26:02.036Z,18.30
2022-11-20T23:28:29.528Z,18.07
2022-11-20T23:30:56.731Z,16.63
2022-11-20T23:33:23.908Z,16.53
2022-11-20T23:35:51.062Z,17.60
2022-11-20T23:38:18.262Z,16.23
2022-11-20T23:40:47.360Z,16.60
2022-11-20T23:43:16.670Z,16.90
2022-11-20T23:45:44.347Z,17.27
2022-11-20T23:48:11.598Z,16.33
2022-11-20T23:50:38.720Z,17.43
2022-11-20T23:53:06.033Z,16.83
2022-11-20T23:55:32.990Z,16.33
2022-11-20T23:58:00.763Z,17.10
